createdAt,value
2018-05-15T00:00:19.663Z,94.90
2018-05-15T00:02:47.814Z,94.80
2018-05-15T00:05:16.792Z,94.10
2018-05-15T00:07:44.941Z,94.10
2018-05-15T00:10:13.096Z,94.80
2018-05-15T00:12:41.271Z,94.50
2018-05-15T00:15:09.441Z,94.60
2018-05-15T00:17:37.616Z,95.30
2018-05-15T00:20:05.776Z,95.00
2018-05-15T00:22:33.956Z,95.40
2018-05-15T00:25:02.111Z,95.60
2018-05-15T00:27:30.282Z,95.30
2018-05-15T00:29:58.463Z,94.90
2018-05-15T00:32:26.640Z,95.10
2018-05-15T00:34:54.854Z,95.10
2018-05-15T00:37:23.125Z,95.60
2018-05-15T00:39:51.275Z,96.00
2018-05-15T00:42:19.473Z,95.50
2018-05-15T00:44:47.840Z,95.40
2018-05-15T00:47:16.215Z,95.30
2018-05-15T00:49:44.499Z,95.30
2018-05-15T00:52:12.688Z,95.30
2018-05-15T00:54:40.952Z,95.80
2018-05-15T00:57:10.054Z,95.80
2018-05-15T00:59:38.202Z,95.80
2018-05-15T01:02:06.371Z,95.60
2018-05-15T01:04:34.584Z,95.70
2018-05-15T01:07:03.642Z,96.50
2018-05-15T01:09:31.803Z,96.40
2018-05-15T01:11:59.991Z,96.20
2018-05-15T01:14:28.152Z,96.60
2018-05-15T01:16:56.351Z,96.80
2018-05-15T01:19:24.645Z,96.80
2018-05-15T01:21:52.920Z,96.80
2018-05-15T01:24:21.070Z,96.90
2018-05-15T01:26:50.172Z,95.60
2018-05-15T01:29:18.387Z,95.80
2018-05-15T01:31:47.458Z,94.90
2018-05-15T01:34:15.640Z,94.90
2018-05-15T01:36:44.612Z,94.70
2018-05-15T01:39:12.755Z,94.70
2018-05-15T01:41:40.970Z,94.60
2018-05-15T01:44:09.133Z,95.30
2018-05-15T01:46:37.346Z,95.10
2018-05-15T01:49:05.600Z,95.40
2018-05-15T01:51:33.765Z,95.40
2018-05-15T01:54:01.948Z,95.40
2018-05-15T01:56:30.218Z,96.00
2018-05-15T01:58:58.390Z,96.30
2018-05-15T02:01:26.544Z,96.00
2018-05-15T02:03:54.748Z,95.40
2018-05-15T02:06:23.730Z,94.70
2018-05-15T02:08:51.898Z,95.00
2018-05-15T02:11:20.052Z,94.50
2018-05-15T02:13:48.229Z,94.80
2018-05-15T02:16:16.910Z,94.30
2018-05-15T02:18:45.108Z,94.00
2018-05-15T02:21:13.295Z,93.70
2018-05-15T02:23:41.476Z,93.40
2018-05-15T02:26:10.529Z,93.50
2018-05-15T02:28:38.759Z,93.40
2018-05-15T02:31:06.929Z,94.10
2018-05-15T02:33:35.104Z,94.90
2018-05-15T02:36:04.090Z,95.20
2018-05-15T02:38:32.359Z,95.20
2018-05-15T02:41:00.640Z,95.10
2018-05-15T02:43:28.916Z,94.50
2018-05-15T02:45:57.068Z,95.00
2018-05-15T02:48:25.247Z,94.70
2018-05-15T02:50:53.436Z,94.00
2018-05-15T02:53:21.601Z,94.10
2018-05-15T02:55:50.710Z,93.90
2018-05-15T02:58:18.978Z,94.10
2018-05-15T03:00:47.272Z,93.60
2018-05-15T03:03:15.439Z,93.80
2018-05-15T03:05:44.394Z,94.50
2018-05-15T03:08:12.578Z,94.50
2018-05-15T03:10:40.739Z,93.90
2018-05-15T03:13:08.915Z,93.90
2018-05-15T03:15:37.087Z,93.90
2018-05-15T03:18:05.275Z,94.20
2018-05-15T03:20:33.436Z,94.40
2018-05-15T03:23:01.631Z,94.70
2018-05-15T03:25:30.426Z,94.10
2018-05-15T03:27:59.228Z,94.40
2018-05-15T03:30:27.476Z,94.60
2018-05-15T03:32:55.676Z,95.10
2018-05-15T03:35:24.689Z,94.40
2018-05-15T03:37:52.937Z,94.30
2018-05-15T03:40:21.131Z,93.00
2018-05-15T03:42:49.291Z,92.10
2018-05-15T03:45:17.462Z,92.60
2018-05-15T03:47:45.626Z,93.50
2018-05-15T03:50:13.819Z,93.40
2018-05-15T03:52:41.962Z,93.50
2018-05-15T03:55:10.183Z,93.20
2018-05-15T03:57:38.361Z,93.60
2018-05-15T04:00:19.979Z,93.80
2018-05-15T04:03:00.279Z,93.70
2018-05-15T04:05:40.476Z,93.50
2018-05-15T04:08:12.203Z,94.00
2018-05-15T04:10:40.347Z,94.00
2018-05-15T04:13:08.576Z,93.90
2018-05-15T04:15:36.739Z,93.90
2018-05-15T04:18:04.896Z,93.60
2018-05-15T04:20:33.086Z,93.60
2018-05-15T04:23:02.746Z,94.00
2018-05-15T04:25:30.964Z,94.00
2018-05-15T04:27:59.151Z,94.00
2018-05-15T04:30:27.285Z,94.20
2018-05-15T04:32:55.588Z,94.00
2018-05-15T04:35:23.822Z,94.10
2018-05-15T04:37:52.031Z,94.20
2018-05-15T04:40:20.304Z,94.00
2018-05-15T04:42:48.463Z,93.80
2018-05-15T04:45:16.636Z,93.80
2018-05-15T04:47:44.816Z,94.00
2018-05-15T04:50:12.990Z,94.00
2018-05-15T04:52:41.147Z,94.20
2018-05-15T04:55:10.175Z,94.10
2018-05-15T04:57:38.344Z,94.10
2018-05-15T05:00:06.538Z,94.30
2018-05-15T05:02:36.233Z,94.20
2018-05-15T05:05:04.491Z,94.10
2018-05-15T05:07:32.680Z,94.40
2018-05-15T05:10:00.859Z,94.60
2018-05-15T05:12:29.238Z,94.80
2018-05-15T05:14:57.410Z,94.40
2018-05-15T05:17:25.569Z,94.30
2018-05-15T05:19:53.763Z,94.50
2018-05-15T05:22:22.029Z,94.70
2018-05-15T05:24:51.115Z,94.50
2018-05-15T05:27:19.314Z,94.50
2018-05-15T05:29:47.487Z,94.40
2018-05-15T05:32:15.771Z,94.30
2018-05-15T05:34:44.726Z,94.50
2018-05-15T05:37:12.876Z,94.80
2018-05-15T05:39:41.063Z,94.60
2018-05-15T05:42:09.271Z,94.60
2018-05-15T05:44:37.486Z,94.80
2018-05-15T05:47:06.440Z,94.70
2018-05-15T05:49:34.646Z,94.70
2018-05-15T05:52:03.012Z,95.00
2018-05-15T05:54:32.149Z,95.10
2018-05-15T05:57:00.473Z,95.00
2018-05-15T05:59:28.668Z,95.00
2018-05-15T06:01:56.834Z,94.80
2018-05-15T06:04:25.102Z,94.90
2018-05-15T06:06:53.270Z,94.90
2018-05-15T06:09:21.443Z,95.10
2018-05-15T06:11:49.622Z,94.80
2018-05-15T06:14:17.771Z,94.90
2018-05-15T06:16:46.012Z,94.70
2018-05-15T06:19:15.659Z,94.90
2018-05-15T06:21:43.832Z,94.90
2018-05-15T06:24:11.981Z,95.00
2018-05-15T06:26:40.143Z,94.90
2018-05-15T06:29:09.094Z,95.00
2018-05-15T06:31:37.363Z,94.90
2018-05-15T06:34:05.534Z,94.80
2018-05-15T06:36:33.780Z,94.80
2018-05-15T06:39:01.941Z,94.80
2018-05-15T06:41:30.863Z,94.90
2018-05-15T06:43:59.008Z,94.90
2018-05-15T06:46:27.958Z,94.30
2018-05-15T06:48:56.101Z,94.30
2018-05-15T06:51:24.267Z,94.30
2018-05-15T06:53:52.411Z,94.30
2018-05-15T06:56:21.339Z,94.50
2018-05-15T06:58:49.487Z,94.50
2018-05-15T07:01:18.419Z,94.50
2018-05-15T07:03:46.598Z,94.50
2018-05-15T07:06:14.768Z,94.60
2018-05-15T07:08:42.959Z,94.30
2018-05-15T07:11:11.128Z,94.10
2018-05-15T07:13:39.292Z,94.20
2018-05-15T07:16:07.470Z,93.70
2018-05-15T07:18:35.619Z,93.40
2018-05-15T07:21:03.781Z,93.10
2018-05-15T07:23:31.992Z,93.20
2018-05-15T07:26:00.165Z,93.30
2018-05-15T07:28:28.336Z,93.70
2018-05-15T07:30:56.611Z,93.30
2018-05-15T07:33:24.758Z,93.30
2018-05-15T07:35:52.926Z,93.50
2018-05-15T07:38:21.136Z,93.60
2018-05-15T07:40:49.287Z,93.20
2018-05-15T07:43:17.484Z,93.20
2018-05-15T07:45:45.630Z,93.10
2018-05-15T07:48:13.809Z,93.30
2018-05-15T07:50:41.983Z,92.90
2018-05-15T07:53:10.150Z,93.00
2018-05-15T07:55:38.296Z,93.00
2018-05-15T07:58:07.466Z,92.80
2018-05-15T08:00:35.624Z,92.80
2018-05-15T08:03:03.904Z,92.80
2018-05-15T08:05:32.057Z,92.60
2018-05-15T08:08:01.029Z,92.70
2018-05-15T08:10:32.933Z,92.60
2018-05-15T08:13:01.180Z,92.50
2018-05-15T08:15:29.521Z,92.20
2018-05-15T08:17:58.473Z,92.30
2018-05-15T08:20:26.676Z,92.30
2018-05-15T08:22:54.855Z,92.20
2018-05-15T08:25:23.006Z,92.20
2018-05-15T08:27:51.677Z,92.50
2018-05-15T08:30:19.860Z,92.50
2018-05-15T08:32:51.535Z,92.40
2018-05-15T08:35:19.680Z,92.20
2018-05-15T08:37:47.980Z,92.10
2018-05-15T08:40:16.131Z,92.90
2018-05-15T08:42:44.554Z,93.10
2018-05-15T08:45:12.703Z,92.90
2018-05-15T08:47:40.903Z,92.80
2018-05-15T08:50:09.107Z,92.70
2018-05-15T08:52:38.224Z,93.20
2018-05-15T08:55:06.368Z,93.20
2018-05-15T08:57:35.317Z,93.20
2018-05-15T09:00:03.471Z,93.20
2018-05-15T09:02:31.643Z,93.10
2018-05-15T09:04:59.825Z,93.00
2018-05-15T09:07:27.987Z,93.10
2018-05-15T09:09:56.143Z,93.30
2018-05-15T09:12:24.377Z,93.60
2018-05-15T09:14:52.531Z,94.40
2018-05-15T09:17:20.793Z,94.70
2018-05-15T09:19:48.938Z,94.90
2018-05-15T09:22:17.387Z,95.00
2018-05-15T09:24:45.530Z,95.50
2018-05-15T09:27:13.706Z,95.50
2018-05-15T09:29:41.868Z,95.70
2018-05-15T09:32:10.040Z,95.70
2018-05-15T09:34:38.207Z,95.30
2018-05-15T09:37:06.357Z,94.90
2018-05-15T09:39:35.286Z,95.00
2018-05-15T09:42:03.479Z,95.00
2018-05-15T09:44:31.744Z,95.50
2018-05-15T09:46:59.994Z,94.70
2018-05-15T09:49:28.091Z,94.50
2018-05-15T09:51:56.295Z,93.60
2018-05-15T09:54:25.246Z,91.80
2018-05-15T09:56:53.410Z,91.70
2018-05-15T09:59:21.595Z,91.20
2018-05-15T10:01:49.780Z,92.20
2018-05-15T10:04:18.058Z,89.70
2018-05-15T10:06:46.207Z,90.60
2018-05-15T10:09:14.387Z,90.30
2018-05-15T10:11:42.595Z,91.10
2018-05-15T10:14:10.774Z,90.50
2018-05-15T10:16:38.926Z,87.90
2018-05-15T10:19:07.078Z,86.70
2018-05-15T10:21:36.059Z,86.80
2018-05-15T10:24:04.237Z,86.80
2018-05-15T10:26:32.446Z,86.60
2018-05-15T10:29:00.646Z,87.40
2018-05-15T10:31:30.307Z,87.30
2018-05-15T10:33:58.494Z,87.20
2018-05-15T10:36:26.683Z,83.70
2018-05-15T10:38:54.936Z,84.30
2018-05-15T10:41:23.110Z,87.10
2018-05-15T10:43:51.339Z,84.30
2018-05-15T10:46:19.458Z,82.00
2018-05-15T10:48:47.629Z,82.50
2018-05-15T10:51:16.631Z,82.00
2018-05-15T10:53:44.921Z,82.00
2018-05-15T10:56:13.051Z,82.70
2018-05-15T10:58:42.079Z,79.80
2018-05-15T11:01:10.480Z,79.80
2018-05-15T11:03:38.671Z,79.20
2018-05-15T11:06:06.893Z,78.20
2018-05-15T11:08:35.088Z,78.80
2018-05-15T11:11:03.235Z,79.80
2018-05-15T11:13:31.399Z,77.50
2018-05-15T11:16:00.320Z,77.80
2018-05-15T11:18:44.373Z,77.70
2018-05-15T11:21:24.318Z,77.00
2018-05-15T11:27:11.019Z,74.70
2018-05-15T11:29:39.244Z,74.70
2018-05-15T11:32:07.391Z,77.10
2018-05-15T11:34:35.559Z,80.70
2018-05-15T11:37:03.756Z,81.70
2018-05-15T11:39:32.064Z,81.40
2018-05-15T11:42:00.203Z,80.30
2018-05-15T11:44:28.367Z,79.00
2018-05-15T11:46:56.502Z,78.60
2018-05-15T11:49:26.273Z,79.60
2018-05-15T11:51:54.822Z,79.60
2018-05-15T11:54:21.883Z,80.50
2018-05-15T11:56:50.062Z,81.20
2018-05-15T11:59:18.270Z,79.10
2018-05-15T12:01:46.637Z,76.60
2018-05-15T12:04:14.795Z,75.50
2018-05-15T12:06:42.931Z,74.10
2018-05-15T12:09:11.095Z,74.60
2018-05-15T12:11:39.515Z,75.60
2018-05-15T12:14:07.691Z,75.50
2018-05-15T12:16:35.903Z,75.30
2018-05-15T12:19:04.044Z,75.60
2018-05-15T12:21:32.216Z,76.10
2018-05-15T12:24:00.346Z,76.50
2018-05-15T12:26:29.388Z,77.80
2018-05-15T12:28:57.518Z,77.80
2018-05-15T12:31:26.147Z,77.10
2018-05-15T12:33:55.537Z,79.00
2018-05-15T12:36:23.818Z,78.70
2018-05-15T12:38:52.032Z,79.00
2018-05-15T12:41:20.319Z,79.40
2018-05-15T12:43:48.451Z,80.10
2018-05-15T12:46:16.723Z,81.30
2018-05-15T12:48:44.927Z,80.00
2018-05-15T12:51:13.080Z,80.30
2018-05-15T12:53:41.243Z,80.90
2018-05-15T12:56:09.517Z,81.30
2018-05-15T12:58:37.667Z,81.50
2018-05-15T13:01:06.675Z,80.80
2018-05-15T13:03:34.842Z,80.80
2018-05-15T13:06:03.035Z,81.90
2018-05-15T13:08:31.187Z,84.00
2018-05-15T13:11:00.199Z,82.70
2018-05-15T13:13:28.351Z,82.70
2018-05-15T13:15:56.530Z,84.20
2018-05-15T13:18:24.747Z,88.60
2018-05-15T13:20:52.983Z,89.90
2018-05-15T13:23:21.157Z,90.80
2018-05-15T13:25:49.354Z,91.10
2018-05-15T13:28:17.515Z,90.70
2018-05-15T13:30:45.896Z,90.70
2018-05-15T13:33:14.091Z,90.70
2018-05-15T13:35:42.365Z,90.20
2018-05-15T13:38:10.555Z,90.50
2018-05-15T13:40:39.527Z,89.90
2018-05-15T13:43:07.675Z,89.90
2018-05-15T13:45:35.872Z,89.40
2018-05-15T13:48:04.039Z,88.90
2018-05-15T13:50:32.295Z,88.30
2018-05-15T13:53:00.391Z,88.10
2018-05-15T13:55:28.542Z,88.00
2018-05-15T13:57:56.743Z,87.10
2018-05-15T14:00:24.974Z,87.10
2018-05-15T14:02:53.187Z,88.30
2018-05-15T14:05:21.338Z,88.60
2018-05-15T14:07:49.541Z,90.00
2018-05-15T14:10:18.712Z,90.50
2018-05-15T14:12:46.915Z,90.50
2018-05-15T14:15:15.066Z,90.50
2018-05-15T14:17:43.283Z,90.50
2018-05-15T14:20:11.534Z,89.40
2018-05-15T14:22:39.739Z,88.00
2018-05-15T14:25:08.536Z,84.90
2018-05-15T14:27:36.704Z,82.10
2018-05-15T14:30:04.838Z,79.40
2018-05-15T14:32:33.014Z,78.50
2018-05-15T14:35:01.159Z,79.20
2018-05-15T14:37:29.360Z,78.20
2018-05-15T14:39:57.994Z,77.40
2018-05-15T14:42:38.216Z,77.40
2018-05-15T14:45:06.376Z,78.60
2018-05-15T14:47:34.544Z,78.00
2018-05-15T14:50:03.560Z,77.10
2018-05-15T14:52:31.835Z,77.10
2018-05-15T14:54:59.984Z,76.20
2018-05-15T14:57:28.162Z,73.50
2018-05-15T14:59:56.314Z,74.10
2018-05-15T15:02:25.251Z,74.60
2018-05-15T15:04:54.045Z,74.60
2018-05-15T15:07:22.336Z,74.10
2018-05-15T15:09:52.018Z,74.00
2018-05-15T15:12:20.187Z,73.90
2018-05-15T15:14:48.323Z,75.20
2018-05-15T15:17:17.417Z,75.20
2018-05-15T15:19:46.463Z,76.10
2018-05-15T15:22:14.687Z,76.10
2018-05-15T15:24:43.628Z,76.70
2018-05-15T15:27:11.758Z,76.70
2018-05-15T15:29:40.101Z,77.60
2018-05-15T15:32:09.070Z,77.00
2018-05-15T15:34:37.347Z,79.60
2018-05-15T15:37:05.529Z,78.20
2018-05-15T15:39:33.794Z,74.80
2018-05-15T15:42:01.933Z,77.20
2018-05-15T15:44:30.871Z,81.60
2018-05-15T15:46:59.018Z,81.60
2018-05-15T15:49:28.216Z,84.80
2018-05-15T15:51:56.410Z,84.80
2018-05-15T15:54:24.692Z,85.40
2018-05-15T15:56:52.860Z,84.20
2018-05-15T15:59:21.065Z,84.30
2018-05-15T16:01:49.314Z,84.40
2018-05-15T16:04:17.490Z,85.80
2018-05-15T16:06:45.632Z,84.20
2018-05-15T16:09:14.284Z,83.50
2018-05-15T16:11:43.208Z,84.20
2018-05-15T16:14:11.411Z,84.20
2018-05-15T16:16:39.555Z,83.00
2018-05-15T16:19:07.766Z,80.60
2018-05-15T16:21:35.938Z,81.00
2018-05-15T16:24:04.103Z,81.70
2018-05-15T16:26:32.269Z,84.60
2018-05-15T16:29:00.459Z,86.70
2018-05-15T16:31:28.808Z,85.60
2018-05-15T16:33:57.811Z,87.80
2018-05-15T16:36:25.895Z,87.70
2018-05-15T16:38:54.080Z,88.50
2018-05-15T16:41:22.212Z,90.20
2018-05-15T16:43:51.153Z,90.00
2018-05-15T16:46:19.309Z,89.90
2018-05-15T16:48:47.626Z,90.50
2018-05-15T16:51:16.589Z,91.20
2018-05-15T16:53:44.891Z,91.20
2018-05-15T16:56:13.823Z,91.40
2018-05-15T16:58:42.358Z,91.40
2018-05-15T17:01:10.500Z,91.90
2018-05-15T17:03:38.671Z,91.40
2018-05-15T17:06:06.826Z,90.90
2018-05-15T17:08:34.997Z,92.00
2018-05-15T17:11:03.146Z,92.30
2018-05-15T17:13:32.124Z,92.50
2018-05-15T17:16:00.228Z,92.50
2018-05-15T17:18:29.138Z,92.80
2018-05-15T17:20:57.329Z,92.80
2018-05-15T17:23:25.504Z,92.50
2018-05-15T17:25:53.788Z,92.60
2018-05-15T17:28:22.077Z,92.60
2018-05-15T17:30:50.249Z,92.50
2018-05-15T17:33:18.395Z,92.50
2018-05-15T17:35:46.587Z,92.70
2018-05-15T17:38:14.883Z,93.00
2018-05-15T17:40:43.244Z,93.70
2018-05-15T17:43:11.421Z,93.50
2018-05-15T17:45:39.631Z,93.50
2018-05-15T17:48:07.780Z,93.40
2018-05-15T17:50:36.145Z,93.70
2018-05-15T17:53:04.295Z,94.00
2018-05-15T17:55:32.470Z,93.70
2018-05-15T17:58:01.487Z,93.90
2018-05-15T18:00:30.558Z,93.90
2018-05-15T18:02:58.729Z,94.10
2018-05-15T18:05:26.933Z,94.10
2018-05-15T18:07:55.121Z,94.30
2018-05-15T18:10:23.359Z,94.60
2018-05-15T18:12:51.561Z,94.20
2018-05-15T18:15:19.816Z,94.50
2018-05-15T18:17:47.926Z,94.30
2018-05-15T18:20:16.097Z,94.60
2018-05-15T18:22:44.346Z,94.50
2018-05-15T18:25:12.519Z,94.30
2018-05-15T18:27:41.598Z,94.60
2018-05-15T18:30:09.822Z,94.60
2018-05-15T18:32:37.975Z,94.70
2018-05-15T18:35:06.256Z,94.90
2018-05-15T18:37:35.223Z,94.40
2018-05-15T18:40:03.419Z,94.40
2018-05-15T18:42:31.582Z,94.60
2018-05-15T18:44:59.742Z,94.50
2018-05-15T18:47:27.946Z,94.40
2018-05-15T18:49:56.253Z,94.30
2018-05-15T18:52:24.459Z,94.60
2018-05-15T18:54:52.654Z,94.50
2018-05-15T18:57:20.962Z,94.50
2018-05-15T18:59:49.130Z,95.10
2018-05-15T19:02:17.498Z,95.10
2018-05-15T19:04:45.781Z,95.00
2018-05-15T19:07:14.757Z,94.70
2018-05-15T19:09:42.914Z,94.70
2018-05-15T19:12:11.097Z,95.30
2018-05-15T19:14:39.247Z,95.40
2018-05-15T19:17:07.466Z,95.40
2018-05-15T19:19:35.698Z,95.60
2018-05-15T19:22:03.815Z,95.30
2018-05-15T19:24:31.991Z,95.40
2018-05-15T19:27:01.863Z,95.00
2018-05-15T19:29:29.963Z,95.00
2018-05-15T19:31:58.135Z,95.10
2018-05-15T19:34:26.294Z,95.70
2018-05-15T19:37:01.137Z,95.80
2018-05-15T19:39:33.293Z,95.80
2018-05-15T19:42:01.379Z,95.30
2018-05-15T19:44:29.523Z,95.20
2018-05-15T19:46:58.478Z,95.50
2018-05-15T19:49:26.736Z,95.50
2018-05-15T19:51:54.994Z,95.40
2018-05-15T19:54:23.293Z,95.40
2018-05-15T19:56:51.482Z,95.10
2018-05-15T19:59:19.635Z,95.40
2018-05-15T20:01:47.849Z,95.60
2018-05-15T20:04:17.503Z,95.40
2018-05-15T20:06:45.715Z,95.40
2018-05-15T20:09:13.874Z,94.00
2018-05-15T20:11:42.254Z,94.20
2018-05-15T20:14:10.431Z,94.30
2018-05-15T20:16:38.759Z,94.20
2018-05-15T20:19:06.919Z,94.10
2018-05-15T20:21:35.843Z,94.90
2018-05-15T20:24:04.043Z,94.80
2018-05-15T20:26:32.321Z,94.90
2018-05-15T20:29:00.510Z,95.20
2018-05-15T20:31:28.671Z,95.40
2018-05-15T20:33:57.044Z,95.40
2018-05-15T20:36:26.125Z,94.90
2018-05-15T20:38:54.332Z,94.90
2018-05-15T20:41:22.496Z,95.00
2018-05-15T20:43:50.647Z,94.90
2018-05-15T20:46:18.925Z,95.00
2018-05-15T20:48:47.796Z,94.60
2018-05-15T20:51:15.978Z,94.60
2018-05-15T20:53:44.139Z,94.60
2018-05-15T20:56:12.455Z,94.60
2018-05-15T20:58:40.592Z,94.40
2018-05-15T21:01:08.767Z,94.50
2018-05-15T21:03:37.691Z,94.90
2018-05-15T21:06:05.982Z,94.90
2018-05-15T21:08:34.148Z,94.80
2018-05-15T21:11:02.298Z,94.70
2018-05-15T21:13:30.472Z,94.60
2018-05-15T21:15:58.647Z,94.40
2018-05-15T21:18:26.825Z,94.50
2018-05-15T21:20:54.972Z,94.60
2018-05-15T21:23:23.904Z,94.50
2018-05-15T21:25:52.084Z,94.40
2018-05-15T21:28:20.278Z,94.40
2018-05-15T21:30:48.419Z,94.70
2018-05-15T21:33:16.594Z,94.60
2018-05-15T21:35:44.999Z,95.40
2018-05-15T21:38:13.167Z,95.40
2018-05-15T21:40:41.319Z,95.20
2018-05-15T21:43:09.497Z,95.60
2018-05-15T21:45:37.774Z,95.70
2018-05-15T21:48:06.058Z,95.60
2018-05-15T21:50:34.238Z,95.60
2018-05-15T21:53:02.515Z,95.50
2018-05-15T21:55:30.662Z,95.50
2018-05-15T21:57:58.831Z,95.70
2018-05-15T22:00:26.980Z,95.90
2018-05-15T22:02:55.919Z,95.60
2018-05-15T22:05:24.067Z,95.60
2018-05-15T22:07:52.254Z,95.60
2018-05-15T22:10:20.411Z,96.00
2018-05-15T22:13:00.545Z,95.50
2018-05-15T22:15:40.746Z,95.60
2018-05-15T22:18:20.815Z,96.10
2018-05-15T22:21:00.931Z,96.00
2018-05-15T22:23:28.642Z,96.10
2018-05-15T22:25:56.902Z,96.30
2018-05-15T22:28:25.082Z,96.70
2018-05-15T22:30:53.252Z,97.00
2018-05-15T22:33:21.531Z,96.80
2018-05-15T22:35:49.812Z,97.00
2018-05-15T22:38:18.080Z,97.00
2018-05-15T22:40:46.247Z,97.00
2018-05-15T22:43:14.428Z,96.90
2018-05-15T22:45:42.611Z,96.80
2018-05-15T22:48:10.865Z,96.70
2018-05-15T22:50:39.048Z,96.70
2018-05-15T22:53:07.223Z,97.10
2018-05-15T22:55:35.370Z,97.10
2018-05-15T22:58:03.555Z,96.90
2018-05-15T23:00:31.727Z,96.90
2018-05-15T23:02:59.943Z,96.80
2018-05-15T23:05:28.299Z,96.60
2018-05-15T23:07:56.446Z,96.90
2018-05-15T23:10:24.619Z,96.80
2018-05-15T23:12:52.763Z,97.00
2018-05-15T23:15:21.100Z,96.80
2018-05-15T23:17:49.247Z,97.10
2018-05-15T23:20:18.191Z,97.30
2018-05-15T23:22:46.443Z,97.30
2018-05-15T23:25:14.629Z,97.50
2018-05-15T23:27:42.787Z,97.50
2018-05-15T23:30:11.031Z,97.40
2018-05-15T23:32:39.348Z,97.40
2018-05-15T23:35:07.521Z,97.60
2018-05-15T23:37:35.695Z,97.40
2018-05-15T23:40:04.013Z,97.50
2018-05-15T23:42:32.975Z,97.50
2018-05-15T23:45:01.240Z,97.50
2018-05-15T23:47:29.389Z,97.50
2018-05-15T23:49:57.590Z,97.50
2018-05-15T23:52:25.746Z,97.40
2018-05-15T23:54:53.907Z,97.60
2018-05-15T23:57:22.126Z,97.60
2018-05-15T23:59:50.491Z,97.30
